Time;durP1;ratioP1;P1;durP2;ratioP2;P2;SDS_P1;SDS_P2;PMS_P1;PMS_P2;Temp;Humidity;BMP_temperature;BMP_pressure;BME280_temperature;BME280_humidity;BME280_pressure;Samples;Min_cycle;Max_cycle;Signal;HPM_P1;HPM_P2
2023/01/06 00:01:16;;;;;;;7.63;1.27;;;11.10;99.90;;;;;;4934155;29;20106;-79
2023/01/06 00:03:50;;;;;;;8.77;1.13;;;11.10;99.90;;;;;;4935076;29;20039;-79
2023/01/06 00:06:17;;;;;;;4.07;1.08;;;11.10;99.90;;;;;;4934342;29;20134;-76
2023/01/06 00:08:44;;;;;;;9.40;1.10;;;11.10;99.90;;;;;;4933848;29;20051;-79
2023/01/06 00:11:12;;;;;;;4.82;0.90;;;11.10;99.90;;;;;;4934542;29;20144;-79
2023/01/06 00:13:39;;;;;;;5.90;1.15;;;11.00;99.90;;;;;;4932162;29;20569;-79
2023/01/06 00:16:07;;;;;;;7.82;1.52;;;11.10;99.90;;;;;;4916311;29;20495;-79
2023/01/06 00:18:34;;;;;;;5.68;1.05;;;11.10;99.90;;;;;;4916810;29;20047;-78
2023/01/06 00:21:01;;;;;;;5.82;1.38;;;11.20;99.90;;;;;;4934444;29;20051;-79
2023/01/06 00:23:27;;;;;;;7.25;1.58;;;11.20;99.90;;;;;;4916875;29;20044;-79
2023/01/06 00:25:54;;;;;;;5.85;1.58;;;11.30;99.90;;;;;;4934151;29;20510;-78
2023/01/06 00:28:21;;;;;;;9.50;1.02;;;11.30;99.90;;;;;;4933817;29;20256;-80
2023/01/06 00:30:47;;;;;;;3.88;1.50;;;11.30;99.90;;;;;;4934157;29;20052;-79
2023/01/06 00:33:14;;;;;;;5.60;1.63;;;11.30;99.90;;;;;;4933774;29;20048;-79
2023/01/06 00:35:41;;;;;;;12.30;2.45;;;11.30;99.90;;;;;;4934373;29;20108;-78
2023/01/06 00:38:08;;;;;;;3.92;0.90;;;11.30;99.90;;;;;;4916890;29;20052;-78
2023/01/06 00:40:36;;;;;;;4.88;1.35;;;11.30;99.90;;;;;;4917280;29;20048;-79
2023/01/06 00:43:03;;;;;;;2.63;0.93;;;11.30;99.90;;;;;;4933667;29;20522;-79
2023/01/06 00:45:30;;;;;;;8.75;1.38;;;11.40;99.90;;;;;;4917119;29;20107;-80
2023/01/06 00:47:56;;;;;;;5.57;0.95;;;11.30;99.90;;;;;;4934090;29;20055;-80
2023/01/06 00:50:23;;;;;;;2.88;1.10;;;11.30;99.90;;;;;;4933423;29;20047;-79
2023/01/06 00:52:50;;;;;;;3.58;1.10;;;11.20;99.90;;;;;;4934265;29;20051;-81
2023/01/06 00:55:17;;;;;;;5.95;1.13;;;11.20;99.90;;;;;;4916085;29;20048;-81
2023/01/06 00:57:43;;;;;;;8.48;1.30;;;11.20;99.90;;;;;;4933951;29;20147;-79
2023/01/06 01:00:11;;;;;;;6.30;1.02;;;11.10;99.90;;;;;;4933523;29;20087;-80
2023/01/06 01:02:37;;;;;;;3.97;1.00;;;11.10;99.90;;;;;;4933797;29;20451;-81
2023/01/06 01:05:04;;;;;;;4.68;1.02;;;11.10;99.90;;;;;;4933298;29;20044;-79
2023/01/06 01:07:31;;;;;;;3.15;0.80;;;11.10;99.90;;;;;;4934355;29;20131;-80
2023/01/06 01:09:58;;;;;;;6.97;1.10;;;11.20;99.90;;;;;;4933260;29;20055;-81
2023/01/06 01:12:24;;;;;;;7.00;1.23;;;11.20;99.90;;;;;;4933854;29;20404;-80
2023/01/06 01:14:52;;;;;;;6.50;1.25;;;11.20;99.90;;;;;;4933517;29;20056;-75
2023/01/06 01:17:26;;;;;;;7.63;1.17;;;11.30;99.90;;;;;;4935033;29;20160;-82
2023/01/06 01:19:54;;;;;;;2.30;0.77;;;11.30;99.90;;;;;;4935576;29;20139;-81
2023/01/06 01:22:21;;;;;;;9.18;1.02;;;11.30;99.90;;;;;;4934855;29;20051;-81
2023/01/06 01:24:48;;;;;;;13.35;1.67;;;11.30;99.90;;;;;;4933542;29;20047;-79
2023/01/06 01:27:15;;;;;;;3.15;1.33;;;11.20;99.90;;;;;;4906299;29;20410;-78
2023/01/06 01:29:41;;;;;;;6.07;1.40;;;11.20;99.90;;;;;;4933231;29;20048;-76
2023/01/06 01:32:08;;;;;;;7.35;1.25;;;11.10;99.90;;;;;;4933655;29;20466;-77
2023/01/06 01:34:35;;;;;;;7.82;1.23;;;11.10;99.90;;;;;;4915371;29;20058;-77
2023/01/06 01:37:02;;;;;;;3.63;1.30;;;11.10;99.90;;;;;;4932714;29;20127;-75
2023/01/06 01:39:29;;;;;;;6.65;1.15;;;11.10;99.90;;;;;;4932850;29;20052;-77
2023/01/06 01:41:56;;;;;;;7.40;1.52;;;11.10;99.90;;;;;;4932162;29;20126;-74
2023/01/06 01:44:48;;;;;;;7.00;1.10;;;11.00;99.90;;;;;;4914301;29;20438;-75
2023/01/06 01:47:21;;;;;;;8.75;1.13;;;11.00;99.90;;;;;;4591622;29;10001606;-75
2023/01/06 01:49:50;;;;;;;4.57;1.70;;;11.00;99.90;;;;;;4932408;29;20058;-74
2023/01/06 01:52:16;;;;;;;5.18;1.20;;;11.00;99.90;;;;;;4932418;29;20290;-73
2023/01/06 01:54:43;;;;;;;4.15;1.08;;;11.00;99.90;;;;;;4934381;29;20150;-74
2023/01/06 01:57:22;;;;;;;5.03;0.90;;;11.00;99.90;;;;;;4918560;29;20051;-72
2023/01/06 01:59:48;;;;;;;8.38;1.23;;;11.00;99.90;;;;;;4901087;29;20044;-73
2023/01/06 02:02:15;;;;;;;5.20;1.00;;;11.00;99.90;;;;;;4935719;29;20075;-75
2023/01/06 02:04:46;;;;;;;8.43;1.38;;;11.00;99.90;;;;;;4920863;29;20056;-74
2023/01/06 02:07:13;;;;;;;4.00;0.82;;;11.00;99.90;;;;;;4920394;29;20047;-74
2023/01/06 02:09:48;;;;;;;3.88;0.70;;;11.10;99.90;;;;;;4934249;29;20143;-76
2023/01/06 02:12:15;;;;;;;4.47;1.42;;;11.10;99.90;;;;;;4915581;29;20336;-77
2023/01/06 02:14:42;;;;;;;3.38;0.77;;;11.10;99.90;;;;;;4932277;29;20058;-76
2023/01/06 02:17:37;;;;;;;5.68;0.70;;;11.00;99.90;;;;;;4932657;29;20044;-74
2023/01/06 02:20:15;;;;;;;1.80;0.50;;;11.00;99.90;;;;;;4918034;29;20052;-75
2023/01/06 02:23:19;;;;;;;3.33;0.63;;;10.90;99.90;;;;;;4914828;29;20329;-76
2023/01/06 02:26:34;;;;;;;0.93;0.57;;;10.70;99.90;;;;;;4931830;29;20055;-74
2023/01/06 02:29:25;;;;;;;1.33;0.90;;;10.60;99.90;;;;;;4835630;29;20108;-75
2023/01/06 02:32:09;;;;;;;1.70;0.35;;;10.60;99.90;;;;;;4927295;29;20051;-75
2023/01/06 02:34:45;;;;;;;3.30;0.75;;;10.50;99.90;;;;;;4914720;29;20051;-76
2023/01/06 02:37:32;;;;;;;2.75;0.90;;;10.50;99.90;;;;;;4914823;29;20050;-76
2023/01/06 02:40:10;;;;;;;2.15;0.40;;;10.30;99.90;;;;;;4914797;29;20056;-75
2023/01/06 02:42:43;;;;;;;1.08;0.30;;;10.30;99.90;;;;;;4931292;29;20048;-75
2023/01/06 02:45:19;;;;;;;1.02;0.50;;;10.20;99.90;;;;;;4931874;29;20090;-75
2023/01/06 02:48:33;;;;;;;1.58;0.40;;;10.10;99.90;;;;;;4931672;29;20048;-75
2023/01/06 02:51:03;;;;;;;1.30;0.60;;;10.00;99.90;;;;;;4925413;29;20052;-75
2023/01/06 02:53:37;;;;;;;1.35;0.50;;;9.90;99.90;;;;;;4931063;29;20062;-76
2023/01/06 02:56:04;;;;;;;0.30;0.30;;;9.80;99.90;;;;;;4899747;29;20047;-76
2023/01/06 02:58:52;;;;;;;1.10;0.50;;;9.70;99.90;;;;;;4914202;29;20055;-75
2023/01/06 03:01:27;;;;;;;1.05;0.50;;;9.60;99.90;;;;;;4916761;29;20062;-75
2023/01/06 03:03:54;;;;;;;1.13;0.30;;;9.60;99.90;;;;;;4896022;29;20134;-76
2023/01/06 03:06:25;;;;;;;0.57;0.30;;;9.60;99.90;;;;;;4911202;29;20048;-75
2023/01/06 03:08:52;;;;;;;0.50;0.35;;;9.50;99.90;;;;;;4890035;29;20043;-76
2023/01/06 03:11:19;;;;;;;0.65;0.20;;;9.40;99.90;;;;;;4914053;29;20506;-77
2023/01/06 03:13:52;;;;;;;1.38;0.52;;;9.40;99.90;;;;;;4913728;29;20422;-77
2023/01/06 03:16:18;;;;;;;1.45;0.40;;;9.30;99.90;;;;;;4899502;29;20081;-76
2023/01/06 03:18:46;;;;;;;1.73;0.43;;;9.20;99.90;;;;;;4916737;29;20544;-77
2023/01/06 03:21:15;;;;;;;0.73;0.40;;;9.20;99.90;;;;;;4903012;29;20511;-76
2023/01/06 03:23:41;;;;;;;2.17;0.38;;;9.10;99.90;;;;;;4902285;29;20075;-76
2023/01/06 03:26:08;;;;;;;0.77;0.40;;;9.00;99.90;;;;;;4934977;29;20434;-77
2023/01/06 03:28:36;;;;;;;2.05;0.30;;;9.00;99.90;;;;;;4935061;29;20070;-77
2023/01/06 03:31:12;;;;;;;1.33;0.65;;;8.90;99.90;;;;;;4934856;29;20131;-76
2023/01/06 03:33:46;;;;;;;0.60;0.40;;;8.90;99.90;;;;;;4934719;29;20495;-76
2023/01/06 03:36:29;;;;;;;2.72;0.47;;;8.80;99.90;;;;;;4918789;29;20080;-77
2023/01/06 03:39:06;;;;;;;5.70;1.27;;;8.80;99.90;;;;;;4918113;29;20050;-77
2023/01/06 03:44:52;;;;;;;2.38;0.50;;;8.70;99.90;;;;;;4921068;29;20050;-76
2023/01/06 03:47:32;;;;;;;2.05;0.45;;;8.60;99.90;;;;;;4903882;29;20131;-77
2023/01/06 03:50:24;;;;;;;1.70;0.40;;;8.60;99.90;;;;;;4902679;29;20066;-77
2023/01/06 03:53:03;;;;;;;2.70;0.50;;;8.50;99.90;;;;;;4920967;29;20059;-78
2023/01/06 03:55:31;;;;;;;2.13;0.57;;;8.50;99.90;;;;;;4918905;29;20131;-77
2023/01/06 03:57:57;;;;;;;1.40;0.60;;;8.40;99.90;;;;;;4937899;29;20111;-78
2023/01/06 04:00:29;;;;;;;2.03;0.63;;;8.40;99.90;;;;;;4902557;29;20070;-76
2023/01/06 04:02:55;;;;;;;2.33;0.57;;;8.30;99.90;;;;;;4898721;29;20055;-78
2023/01/06 04:05:26;;;;;;;5.07;0.60;;;8.30;99.90;;;;;;4929151;29;20056;-77
2023/01/06 04:07:53;;;;;;;1.85;0.55;;;8.20;99.90;;;;;;4934620;29;20151;-77
2023/01/06 04:10:20;;;;;;;1.20;0.40;;;8.30;99.90;;;;;;4914126;29;20059;-76
2023/01/06 04:12:47;;;;;;;0.95;0.40;;;8.20;99.90;;;;;;4934424;29;20087;-76
2023/01/06 04:15:22;;;;;;;2.38;0.60;;;8.20;99.90;;;;;;4917155;29;20075;-77
2023/01/06 04:17:49;;;;;;;1.20;0.60;;;8.20;99.90;;;;;;4934195;29;20139;-76
2023/01/06 04:20:25;;;;;;;1.25;0.63;;;8.10;99.90;;;;;;4933996;29;20518;-73
2023/01/06 04:22:53;;;;;;;3.72;0.47;;;8.10;99.90;;;;;;4934198;29;20060;-76
2023/01/06 04:25:20;;;;;;;3.50;0.63;;;8.10;99.90;;;;;;4933577;29;20107;-78
2023/01/06 04:27:47;;;;;;;3.70;0.70;;;8.10;99.90;;;;;;4934364;29;20048;-78
2023/01/06 04:30:13;;;;;;;3.42;0.60;;;8.10;99.90;;;;;;4916213;29;20070;-78
2023/01/06 04:32:41;;;;;;;2.75;0.80;;;8.00;99.90;;;;;;4933685;29;20048;-76
2023/01/06 04:35:08;;;;;;;1.42;0.55;;;8.10;99.90;;;;;;4917028;29;20060;-78
2023/01/06 04:37:35;;;;;;;3.13;0.80;;;8.00;99.90;;;;;;4933785;29;20418;-78
2023/01/06 04:40:02;;;;;;;2.20;0.60;;;8.00;99.90;;;;;;4934256;29;20061;-77
2023/01/06 04:43:02;;;;;;;1.83;0.60;;;8.00;99.90;;;;;;4934098;29;20479;-77
2023/01/06 04:45:16;;;;;;;4.63;1.00;;;8.00;99.90;;;;;;4933712;29;20039;-77
2023/01/06 04:47:42;;;;;;;2.63;0.75;;;8.00;99.90;;;;;;4933748;29;20567;-78
2023/01/06 04:50:09;;;;;;;0.85;0.45;;;8.00;99.90;;;;;;4933384;29;20583;-78
2023/01/06 04:52:36;;;;;;;3.60;0.50;;;8.00;99.90;;;;;;4927540;29;20056;-77
2023/01/06 04:55:03;;;;;;;4.00;0.80;;;8.00;99.90;;;;;;4934068;29;20052;-77
2023/01/06 04:57:30;;;;;;;4.80;0.63;;;8.00;99.90;;;;;;4933315;29;20052;-78
2023/01/06 04:59:57;;;;;;;3.05;0.60;;;7.90;99.90;;;;;;4933769;29;20052;-77
2023/01/06 05:02:23;;;;;;;5.78;0.73;;;7.90;99.90;;;;;;4933356;29;20048;-77
2023/01/06 05:04:50;;;;;;;1.98;0.68;;;7.90;99.90;;;;;;4916686;29;20062;-78
2023/01/06 05:07:17;;;;;;;1.45;0.50;;;8.00;99.90;;;;;;4933228;29;20131;-77
2023/01/06 05:09:44;;;;;;;1.05;0.45;;;7.80;99.90;;;;;;4933234;29;20063;-78
2023/01/06 05:12:10;;;;;;;1.45;0.65;;;7.80;99.90;;;;;;4933240;29;20051;-78
2023/01/06 05:14:37;;;;;;;1.63;0.63;;;7.80;99.90;;;;;;4933074;29;20143;-78
2023/01/06 05:17:04;;;;;;;5.40;1.00;;;7.80;99.90;;;;;;4933350;29;20055;-78
2023/01/06 05:19:30;;;;;;;4.32;0.50;;;7.70;99.90;;;;;;4933190;29;20058;-79
2023/01/06 05:21:57;;;;;;;8.25;0.88;;;7.70;99.90;;;;;;4933423;29;20533;-78
2023/01/06 05:24:24;;;;;;;6.95;1.02;;;7.70;99.90;;;;;;4933152;29;20786;-78
2023/01/06 05:26:53;;;;;;;4.00;0.60;;;7.70;99.90;;;;;;4933129;29;20044;-78
2023/01/06 05:29:20;;;;;;;6.82;1.42;;;7.70;99.90;;;;;;4933050;29;20055;-79
2023/01/06 05:31:47;;;;;;;3.53;0.70;;;7.70;99.90;;;;;;4933288;29;20143;-78
2023/01/06 05:34:13;;;;;;;3.95;0.60;;;7.70;99.90;;;;;;4932683;29;20067;-79
2023/01/06 05:36:40;;;;;;;5.95;0.60;;;7.70;99.90;;;;;;4933059;29;20090;-78
2023/01/06 05:39:07;;;;;;;5.18;0.98;;;7.70;99.90;;;;;;4932833;29;20123;-79
2023/01/06 05:41:34;;;;;;;6.40;1.52;;;7.70;99.90;;;;;;4933258;29;20062;-77
2023/01/06 05:44:00;;;;;;;3.78;0.40;;;7.70;99.90;;;;;;4916602;29;20122;-78
2023/01/06 05:46:27;;;;;;;5.68;0.70;;;7.70;99.90;;;;;;4933617;29;20048;-77
2023/01/06 05:48:54;;;;;;;5.53;0.80;;;7.70;99.90;;;;;;4916307;29;20047;-78
2023/01/06 05:51:21;;;;;;;2.05;0.60;;;7.70;99.90;;;;;;4933783;29;20050;-78
2023/01/06 05:53:47;;;;;;;1.42;0.50;;;7.70;99.90;;;;;;4916604;29;20056;-78
2023/01/06 05:56:16;;;;;;;4.90;0.70;;;7.70;99.90;;;;;;4932903;29;20130;-78
2023/01/06 05:58:43;;;;;;;5.05;0.75;;;7.70;99.90;;;;;;4932516;29;20047;-77
2023/01/06 06:01:24;;;;;;;4.85;0.85;;;7.70;99.90;;;;;;4932961;29;20089;-78
2023/01/06 06:03:51;;;;;;;4.43;0.98;;;7.70;99.90;;;;;;4932719;29;20170;-76
2023/01/06 06:06:18;;;;;;;0.77;0.55;;;7.70;99.90;;;;;;4932687;29;20063;-77
2023/01/06 06:08:45;;;;;;;5.43;1.40;;;7.70;99.90;;;;;;4915203;29;20130;-78
2023/01/06 06:11:13;;;;;;;3.58;0.70;;;7.70;99.90;;;;;;4932496;29;20388;-78
2023/01/06 06:13:47;;;;;;;4.75;0.75;;;7.80;99.90;;;;;;4915554;29;20052;-77
2023/01/06 06:16:14;;;;;;;;;;;7.50;99.90;;;;;;4932759;29;20070;-79
2023/01/06 06:18:41;;;;;;;3.72;0.50;;;7.70;99.90;;;;;;4933523;29;19929;-78
2023/01/06 06:21:13;;;;;;;3.22;0.57;;;7.70;99.90;;;;;;4915973;29;20048;-77
2023/01/06 06:23:40;;;;;;;3.72;0.60;;;7.70;99.90;;;;;;4916499;29;20056;-80
2023/01/06 06:26:07;;;;;;;1.38;0.50;;;7.70;99.90;;;;;;4917138;29;20051;-79
2023/01/06 06:28:35;;;;;;;3.75;0.70;;;7.70;99.90;;;;;;4936826;29;20513;-77
2023/01/06 06:31:16;;;;;;;1.80;0.60;;;7.70;99.90;;;;;;4934726;29;20068;-78
2023/01/06 06:33:43;;;;;;;3.35;0.80;;;7.70;99.90;;;;;;4933349;29;20048;-77
2023/01/06 06:36:14;;;;;;;3.13;0.77;;;7.70;99.90;;;;;;4938602;29;20082;-78
2023/01/06 06:38:45;;;;;;;2.67;0.65;;;7.70;99.90;;;;;;4926999;29;20530;-77
2023/01/06 06:41:12;;;;;;;3.20;0.93;;;7.70;99.90;;;;;;4943343;29;20056;-77
2023/01/06 06:43:38;;;;;;;1.98;0.50;;;7.70;99.90;;;;;;4925495;29;20056;-79
2023/01/06 06:46:05;;;;;;;1.23;0.50;;;7.60;99.90;;;;;;4943124;29;20058;-77
2023/01/06 06:48:32;;;;;;;1.08;0.45;;;7.60;99.90;;;;;;4939048;29;20583;-76
2023/01/06 06:51:09;;;;;;;6.03;1.40;;;7.60;99.90;;;;;;4591266;29;10000101;-77
2023/01/06 06:53:36;;;;;;;3.13;0.82;;;7.60;99.90;;;;;;4914029;29;20044;-77
2023/01/06 06:56:04;;;;;;;2.83;0.70;;;7.50;99.90;;;;;;4930965;29;20058;-78
2023/01/06 06:58:31;;;;;;;1.02;0.55;;;7.50;99.90;;;;;;4931511;29;20062;-78
2023/01/06 07:00:57;;;;;;;3.60;0.75;;;7.50;99.90;;;;;;4913536;29;20048;-80
2023/01/06 07:03:24;;;;;;;5.57;1.00;;;7.50;99.90;;;;;;4930360;29;20142;-78
2023/01/06 07:05:51;;;;;;;2.80;1.70;;;7.50;99.90;;;;;;4929668;29;20060;-77
2023/01/06 07:08:18;;;;;;;2.40;0.70;;;7.50;99.90;;;;;;4930033;29;20146;-78
2023/01/06 07:10:45;;;;;;;6.32;0.90;;;7.40;99.90;;;;;;4930198;29;20578;-79
2023/01/06 07:13:12;;;;;;;3.55;0.80;;;7.50;99.90;;;;;;4929639;29;20051;-78
2023/01/06 07:15:38;;;;;;;1.92;0.77;;;7.50;99.90;;;;;;4929392;29;20475;-79
2023/01/06 07:18:05;;;;;;;4.18;1.30;;;7.40;99.90;;;;;;4929262;29;20052;-76
2023/01/06 07:20:33;;;;;;;2.78;0.80;;;7.40;99.90;;;;;;4929255;29;20063;-79
2023/01/06 07:23:00;;;;;;;1.58;0.60;;;7.40;99.90;;;;;;4912229;29;20082;-80
2023/01/06 07:25:27;;;;;;;3.00;1.27;;;7.40;99.90;;;;;;4929415;29;20060;-78
2023/01/06 07:27:58;;;;;;;3.33;1.05;;;7.40;99.90;;;;;;4911656;29;20048;-76
2023/01/06 07:30:26;;;;;;;2.42;0.65;;;7.40;99.90;;;;;;4928645;29;20075;-76
2023/01/06 07:32:52;;;;;;;1.92;0.70;;;7.40;99.90;;;;;;4911635;29;20239;-77
2023/01/06 07:35:19;;;;;;;3.40;0.65;;;7.30;99.90;;;;;;4911645;29;20048;-74
2023/01/06 07:37:46;;;;;;;4.55;0.65;;;7.30;99.90;;;;;;4928038;29;20456;-73
2023/01/06 07:40:13;;;;;;;1.60;0.60;;;7.30;99.90;;;;;;4928181;29;20056;-76
2023/01/06 07:42:39;;;;;;;2.72;0.88;;;7.30;99.90;;;;;;4926706;29;20051;-75
2023/01/06 07:45:07;;;;;;;5.55;0.70;;;7.30;99.90;;;;;;4927512;29;20056;-73
2023/01/06 07:47:33;;;;;;;4.25;1.38;;;7.30;99.90;;;;;;4927850;29;20082;-76
2023/01/06 07:50:00;;;;;;;4.22;0.80;;;7.30;99.90;;;;;;4928124;29;20070;-79
2023/01/06 07:52:27;;;;;;;3.10;0.60;;;7.30;99.90;;;;;;4911128;29;20510;-76
2023/01/06 07:54:58;;;;;;;3.70;0.65;;;7.20;99.90;;;;;;4928385;29;20079;-77
2023/01/06 07:57:25;;;;;;;1.67;0.50;;;7.30;99.90;;;;;;4928312;29;20126;-78
2023/01/06 07:59:52;;;;;;;4.30;0.88;;;7.20;99.90;;;;;;4924270;29;20051;-75
2023/01/06 08:02:22;;;;;;;4.07;0.47;;;7.20;99.90;;;;;;4927347;29;20058;-77
2023/01/06 08:04:49;;;;;;;4.40;0.60;;;7.20;99.90;;;;;;4927710;29;20055;-76
2023/01/06 08:07:16;;;;;;;3.70;0.55;;;7.20;99.90;;;;;;4919390;29;20052;-75
2023/01/06 08:09:42;;;;;;;6.40;0.73;;;7.20;99.90;;;;;;4928328;29;20131;-73
2023/01/06 08:12:09;;;;;;;4.97;1.15;;;7.20;99.90;;;;;;4931214;29;20411;-78
2023/01/06 08:14:36;;;;;;;4.10;0.60;;;7.20;99.90;;;;;;4912132;29;20052;-79
2023/01/06 08:17:03;;;;;;;17.67;2.90;;;7.30;99.90;;;;;;4930852;29;20047;-77
2023/01/06 08:19:30;;;;;;;0.55;0.45;;;7.30;99.90;;;;;;4913128;29;20054;-76
2023/01/06 08:21:56;;;;;;;4.70;0.70;;;7.30;99.90;;;;;;4930946;29;20063;-77
2023/01/06 08:24:23;;;;;;;1.02;0.68;;;7.30;99.90;;;;;;4933465;29;20496;-76
2023/01/06 08:26:50;;;;;;;2.72;1.15;;;7.30;99.90;;;;;;4931251;29;20077;-77
2023/01/06 08:29:17;;;;;;;0.73;0.57;;;7.50;99.90;;;;;;4913914;29;20134;-77
2023/01/06 08:31:44;;;;;;;4.15;0.60;;;7.30;99.90;;;;;;4931140;29;20610;-76
2023/01/06 08:34:13;;;;;;;3.92;0.73;;;7.30;99.90;;;;;;4930767;29;20043;-77
2023/01/06 08:36:41;;;;;;;2.83;0.47;;;7.30;99.90;;;;;;4931209;29;20083;-79
2023/01/06 08:39:08;;;;;;;4.07;0.75;;;7.40;99.90;;;;;;4930509;29;20578;-75
2023/01/06 08:41:35;;;;;;;1.40;0.77;;;7.40;99.90;;;;;;4930520;29;20066;-77
2023/01/06 08:44:02;;;;;;;4.68;0.68;;;7.50;99.90;;;;;;4930611;29;20056;-75
2023/01/06 08:46:28;;;;;;;5.00;1.70;;;7.50;99.90;;;;;;4931035;29;20052;-77
2023/01/06 08:48:56;;;;;;;7.85;1.25;;;7.40;99.90;;;;;;4930310;29;20055;-77
2023/01/06 08:51:23;;;;;;;1.90;0.70;;;7.50;99.90;;;;;;4924810;29;20134;-77
2023/01/06 08:53:50;;;;;;;1.67;0.70;;;7.60;99.90;;;;;;4912657;29;20047;-80
2023/01/06 08:56:18;;;;;;;5.95;1.00;;;7.60;99.90;;;;;;4907545;29;20071;-77
2023/01/06 08:58:49;;;;;;;5.13;1.35;;;7.60;99.90;;;;;;4930801;29;20486;-77
2023/01/06 09:01:17;;;;;;;6.50;1.10;;;7.60;99.90;;;;;;4916897;29;20305;-77
2023/01/06 09:03:44;;;;;;;4.82;0.50;;;7.60;99.90;;;;;;4915588;29;20048;-77
2023/01/06 09:06:11;;;;;;;3.50;0.80;;;7.60;99.90;;;;;;4925748;29;20050;-78
2023/01/06 09:08:38;;;;;;;6.38;0.80;;;7.60;99.90;;;;;;4930570;29;20106;-77
2023/01/06 09:11:08;;;;;;;6.80;1.05;;;7.60;99.90;;;;;;4930331;29;20849;-79
2023/01/06 09:13:35;;;;;;;4.57;0.63;;;7.60;99.90;;;;;;4930940;29;20150;-77
2023/01/06 09:16:09;;;;;;;2.55;0.47;;;7.60;99.90;;;;;;4931196;29;20055;-76
2023/01/06 09:18:36;;;;;;;2.85;0.77;;;7.70;99.90;;;;;;4915863;29;20538;-77
2023/01/06 09:21:03;;;;;;;3.65;0.77;;;7.70;99.90;;;;;;4932540;29;20131;-77
2023/01/06 09:23:30;;;;;;;4.97;0.85;;;7.70;99.90;;;;;;4931822;29;20055;-76
2023/01/06 09:25:57;;;;;;;3.60;0.70;;;7.80;99.90;;;;;;4911375;29;20507;-76
2023/01/06 09:28:24;;;;;;;7.20;0.90;;;7.80;99.90;;;;;;4923563;29;20048;-77
2023/01/06 09:30:51;;;;;;;4.70;1.00;;;7.80;99.90;;;;;;4932727;29;20052;-77
2023/01/06 09:33:17;;;;;;;7.32;0.90;;;7.90;99.90;;;;;;4933158;29;20471;-77
2023/01/06 09:35:47;;;;;;;2.58;0.73;;;8.00;99.90;;;;;;4927953;29;20056;-74
2023/01/06 09:38:14;;;;;;;6.20;1.13;;;8.00;99.90;;;;;;4933154;29;20043;-76
2023/01/06 09:41:03;;;;;;;2.70;0.80;;;8.00;99.90;;;;;;4915998;29;20058;-77
2023/01/06 09:43:36;;;;;;;4.47;0.90;;;8.10;99.90;;;;;;4900844;29;20065;-77
2023/01/06 09:46:03;;;;;;;5.47;1.05;;;8.20;99.90;;;;;;4933107;29;20059;-77
2023/01/06 09:48:36;;;;;;;1.77;0.65;;;8.20;99.90;;;;;;4912923;29;20069;-77
2023/01/06 09:51:03;;;;;;;2.23;0.77;;;8.20;99.90;;;;;;4915652;29;20147;-76
2023/01/06 09:53:36;;;;;;;2.03;0.50;;;8.30;99.90;;;;;;4915741;29;20039;-77
2023/01/06 09:56:07;;;;;;;2.80;0.73;;;8.30;99.90;;;;;;4933363;29;20083;-74
2023/01/06 09:59:03;;;;;;;5.18;1.27;;;8.30;99.90;;;;;;4900557;29;20276;-76
2023/01/06 10:01:33;;;;;;;5.47;1.10;;;8.40;99.90;;;;;;4917353;29;20048;-75
2023/01/06 10:04:00;;;;;;;4.95;0.85;;;8.40;99.90;;;;;;4900340;29;20087;-75
2023/01/06 10:06:59;;;;;;;3.45;0.90;;;8.50;99.90;;;;;;4915561;29;20539;-76
2023/01/06 10:09:32;;;;;;;6.45;1.48;;;8.50;99.90;;;;;;4917056;29;20052;-77
2023/01/06 10:12:29;;;;;;;4.43;0.80;;;8.50;99.90;;;;;;4914791;29;20083;-74
2023/01/06 10:14:56;;;;;;;3.08;1.13;;;8.60;99.90;;;;;;4923273;29;20062;-79
2023/01/06 10:18:02;;;;;;;4.75;1.00;;;8.60;99.90;;;;;;4932220;29;20075;-75
2023/01/06 10:20:50;;;;;;;6.68;1.10;;;8.70;99.90;;;;;;4892039;29;20055;-76
2023/01/06 10:23:51;;;;;;;3.47;0.82;;;8.80;99.90;;;;;;4907848;29;20443;-75
2023/01/06 10:26:26;;;;;;;6.88;1.08;;;8.80;99.90;;;;;;4918142;29;20130;-76
2023/01/06 10:28:53;;;;;;;5.97;0.70;;;8.90;99.90;;;;;;4899531;29;20083;-76
2023/01/06 10:31:25;;;;;;;3.78;1.20;;;9.00;99.90;;;;;;4915154;29;20043;-77
2023/01/06 10:33:53;;;;;;;4.18;1.38;;;9.00;99.90;;;;;;4932181;29;20055;-76
2023/01/06 10:36:27;;;;;;;7.50;1.17;;;9.10;99.90;;;;;;4932126;29;20061;-75
2023/01/06 10:38:55;;;;;;;6.35;1.00;;;9.10;99.90;;;;;;4900225;29;20051;-76
2023/01/06 10:41:40;;;;;;;5.88;1.20;;;9.20;99.90;;;;;;4915284;29;20054;-76
2023/01/06 10:44:09;;;;;;;5.28;1.23;;;9.30;99.90;;;;;;4915271;29;20071;-76
2023/01/06 10:46:36;;;;;;;3.83;1.05;;;9.30;99.90;;;;;;4915191;29;20056;-77
2023/01/06 10:49:04;;;;;;;6.75;1.58;;;9.30;99.90;;;;;;4915197;29;20091;-76
2023/01/06 10:51:34;;;;;;;2.30;1.00;;;9.40;99.90;;;;;;4914966;29;20083;-77
2023/01/06 10:54:03;;;;;;;2.65;0.85;;;9.40;99.90;;;;;;4931430;29;20043;-76
2023/01/06 10:56:30;;;;;;;3.25;1.02;;;9.50;99.90;;;;;;4914699;29;20139;-76
2023/01/06 10:59:00;;;;;;;5.25;1.30;;;9.60;99.90;;;;;;4914955;29;20048;-74
2023/01/06 11:01:28;;;;;;;6.40;1.10;;;9.60;99.90;;;;;;4915447;29;20091;-76
2023/01/06 11:04:10;;;;;;;3.63;1.10;;;9.60;99.90;;;;;;4914758;29;20562;-75
2023/01/06 11:06:59;;;;;;;6.82;1.23;;;9.70;99.90;;;;;;4922204;29;20070;-75
2023/01/06 11:09:38;;;;;;;6.53;1.00;;;9.80;99.90;;;;;;4914381;29;20048;-75
2023/01/06 11:12:15;;;;;;;6.78;0.90;;;9.80;99.90;;;;;;4931455;29;20082;-75
2023/01/06 11:14:45;;;;;;;1.90;0.80;;;9.90;99.90;;;;;;4573439;29;10000568;-76
2023/01/06 11:17:14;;;;;;;16.33;1.20;;;10.00;99.90;;;;;;4902109;29;20624;-76
2023/01/06 11:19:42;;;;;;;2.22;0.90;;;10.00;99.90;;;;;;4918829;29;20048;-75
2023/01/06 11:22:38;;;;;;;8.82;1.42;;;10.10;99.90;;;;;;4932151;29;20055;-76
2023/01/06 11:25:20;;;;;;;8.73;2.35;;;10.20;99.90;;;;;;4915747;29;20051;-75
2023/01/06 11:28:05;;;;;;;5.20;1.27;;;10.20;99.90;;;;;;4927623;29;20052;-73
2023/01/06 11:30:35;;;;;;;8.48;1.83;;;10.30;99.90;;;;;;4933744;29;20087;-75
2023/01/06 11:33:02;;;;;;;5.30;1.42;;;10.30;99.90;;;;;;4901532;29;20052;-74
2023/01/06 11:35:31;;;;;;;5.63;1.30;;;10.50;99.90;;;;;;4918203;29;20127;-76
2023/01/06 11:37:58;;;;;;;5.72;1.48;;;10.50;99.90;;;;;;4920116;29;20048;-75
2023/01/06 11:40:30;;;;;;;6.55;0.88;;;10.60;99.90;;;;;;4939952;29;20487;-76
2023/01/06 11:43:00;;;;;;;4.20;1.20;;;10.60;99.90;;;;;;4919131;29;20094;-77
2023/01/06 11:45:34;;;;;;;10.85;1.63;;;10.50;99.90;;;;;;4899602;29;20052;-76
2023/01/06 11:48:13;;;;;;;7.93;1.27;;;10.50;99.90;;;;;;4946849;29;20452;-77
2023/01/06 11:50:39;;;;;;;5.65;1.25;;;10.50;99.90;;;;;;4899155;29;20052;-76
2023/01/06 11:53:16;;;;;;;6.35;1.33;;;10.60;99.90;;;;;;4935445;29;20047;-77
2023/01/06 11:56:01;;;;;;;6.00;1.20;;;10.50;99.90;;;;;;4917654;29;20135;-77
2023/01/06 11:58:50;;;;;;;13.93;3.03;;;10.50;99.90;;;;;;4925897;29;20204;-77
2023/01/06 12:01:32;;;;;;;3.67;1.23;;;10.50;99.90;;;;;;4929599;29;20044;-77
2023/01/06 12:04:15;;;;;;;7.43;1.63;;;10.50;99.90;;;;;;4918120;29;20083;-77
2023/01/06 12:06:42;;;;;;;7.15;1.30;;;10.50;99.90;;;;;;4918749;29;20048;-77
2023/01/06 12:09:14;;;;;;;8.55;1.45;;;10.50;99.90;;;;;;4914032;29;20048;-76
2023/01/06 12:11:52;;;;;;;6.30;1.33;;;10.60;99.90;;;;;;4927516;29;20063;-76
2023/01/06 12:14:23;;;;;;;2.38;1.20;;;10.60;99.90;;;;;;4917662;29;20048;-75
2023/01/06 12:17:06;;;;;;;7.38;1.27;;;10.70;99.90;;;;;;4917891;29;20048;-76
2023/01/06 12:19:39;;;;;;;8.90;1.60;;;10.70;99.90;;;;;;4934433;29;20044;-76
2023/01/06 12:22:17;;;;;;;5.85;1.35;;;10.70;99.90;;;;;;4917252;29;20119;-76
2023/01/06 12:24:45;;;;;;;16.10;2.75;;;10.70;99.90;;;;;;4903090;29;20134;-77
2023/01/06 12:27:12;;;;;;;9.18;1.30;;;10.80;99.90;;;;;;4901862;29;20049;-76
2023/01/06 12:29:38;;;;;;;3.47;1.02;;;10.80;99.90;;;;;;4901693;29;20520;-78
2023/01/06 12:32:17;;;;;;;8.48;1.30;;;10.80;99.90;;;;;;4933740;29;20046;-77
2023/01/06 12:34:49;;;;;;;3.58;1.40;;;10.80;99.90;;;;;;4902446;29;20107;-77
2023/01/06 12:37:35;;;;;;;4.22;1.50;;;10.70;99.90;;;;;;4918035;29;20047;-78
2023/01/06 12:40:29;;;;;;;5.90;1.25;;;10.80;99.90;;;;;;4918605;29;20044;-78
2023/01/06 12:43:14;;;;;;;11.15;1.48;;;10.70;99.90;;;;;;4934043;29;20082;-77
2023/01/06 12:46:04;;;;;;;9.80;1.15;;;10.80;99.90;;;;;;4934397;29;20134;-77
2023/01/06 12:48:46;;;;;;;5.28;1.45;;;10.80;99.90;;;;;;4933801;29;20056;-78
2023/01/06 12:51:40;;;;;;;4.57;0.98;;;10.80;99.90;;;;;;4897853;29;20056;-77
2023/01/06 12:54:10;;;;;;;7.72;1.45;;;10.90;99.90;;;;;;4917814;29;20090;-77
2023/01/06 12:56:59;;;;;;;7.03;1.83;;;10.90;99.90;;;;;;4917398;29;20429;-76
2023/01/06 12:59:47;;;;;;;3.83;1.20;;;10.90;99.90;;;;;;4933803;29;20163;-77
2023/01/06 13:02:35;;;;;;;9.25;2.90;;;10.90;99.90;;;;;;4919751;29;20139;-78
2023/01/06 13:05:32;;;;;;;7.18;1.40;;;10.90;99.90;;;;;;4933724;29;20159;-77
2023/01/06 13:08:18;;;;;;;7.35;1.27;;;11.00;99.90;;;;;;4933502;29;20134;-79
2023/01/06 13:10:47;;;;;;;10.02;1.65;;;11.00;99.90;;;;;;4923481;29;20051;-76
2023/01/06 13:13:39;;;;;;;7.85;1.73;;;11.00;99.90;;;;;;4901300;29;20043;-78
2023/01/06 13:16:39;;;;;;;7.15;2.40;;;11.00;99.90;;;;;;4917041;29;20055;-78
2023/01/06 13:19:43;;;;;;;6.35;2.05;;;11.10;99.90;;;;;;4918849;29;20040;-77